createdAt,value
2023-01-10T00:03:44.853Z,34.25
2023-01-10T00:08:50.013Z,39.75
2023-01-10T00:13:57.645Z,39.00
2023-01-10T00:19:02.663Z,32.00
2023-01-10T00:24:20.384Z,35.33
2023-01-10T00:29:36.584Z,26.50
2023-01-10T00:34:41.342Z,35.75
2023-01-10T00:39:45.978Z,31.67
2023-01-10T00:44:52.654Z,26.75
2023-01-10T00:49:57.226Z,29.33
2023-01-10T00:55:01.955Z,28.00
2023-01-10T01:00:10.354Z,25.00
2023-01-10T01:05:14.966Z,24.00
2023-01-10T01:10:29.662Z,32.33
2023-01-10T01:15:38.162Z,33.00
2023-01-10T01:20:46.875Z,26.33
2023-01-10T01:25:55.931Z,24.75
2023-01-10T01:31:00.668Z,34.25
2023-01-10T01:36:09.320Z,32.50
2023-01-10T01:41:32.612Z,39.00
2023-01-10T01:46:40.813Z,39.00
2023-01-10T01:51:48.168Z,38.00
2023-01-10T01:56:59.548Z,31.00
2023-01-10T02:02:10.359Z,21.75
2023-01-10T02:07:16.409Z,28.50
2023-01-10T02:12:21.815Z,31.50
2023-01-10T02:17:26.670Z,16.25
2023-01-10T02:23:19.329Z,27.00
2023-01-10T02:29:22.386Z,20.33
2023-01-10T02:34:54.908Z,21.00
2023-01-10T02:40:29.072Z,24.25
2023-01-10T02:45:42.831Z,34.25
2023-01-10T02:51:00.625Z,22.50
2023-01-10T02:56:21.588Z,26.50
2023-01-10T03:01:44.970Z,24.25
2023-01-10T03:07:19.719Z,35.25
2023-01-10T03:12:40.996Z,29.75
2023-01-10T03:17:51.286Z,29.50
2023-01-10T03:28:02.827Z,29.33
2023-01-10T03:33:08.710Z,32.33
2023-01-10T03:38:40.550Z,30.67
2023-01-10T03:44:07.027Z,34.00
2023-01-10T03:54:19.033Z,37.00
2023-01-10T03:59:28.955Z,28.25
2023-01-10T04:04:34.247Z,32.00
2023-01-10T04:09:39.523Z,31.25
2023-01-10T04:14:48.092Z,28.33
2023-01-10T04:19:53.283Z,29.00
2023-01-10T04:24:58.400Z,38.00
2023-01-10T04:30:03.863Z,29.50
2023-01-10T04:35:09.930Z,37.67
2023-01-10T04:40:18.427Z,34.50
2023-01-10T04:45:24.446Z,30.00
2023-01-10T04:50:30.043Z,30.50
2023-01-10T04:55:36.426Z,28.50
2023-01-10T05:00:47.205Z,31.00
2023-01-10T05:05:52.580Z,38.25
2023-01-10T05:10:57.794Z,38.75
2023-01-10T05:16:03.351Z,32.33
2023-01-10T05:21:15.611Z,37.75
2023-01-10T05:26:26.414Z,27.25
2023-01-10T05:31:35.247Z,27.50
2023-01-10T05:36:40.793Z,0.00
2023-01-10T05:41:46.436Z,18.25
2023-01-10T05:46:51.787Z,29.67
2023-01-10T05:51:56.871Z,0.00
2023-01-10T06:02:09.382Z,2.00
2023-01-10T06:07:14.834Z,0.00
2023-01-10T06:12:20.872Z,0.00
2023-01-10T06:17:25.804Z,0.00
2023-01-10T06:22:30.965Z,0.00
2023-01-10T06:27:36.400Z,0.00
2023-01-10T06:32:42.721Z,0.00
2023-01-10T06:37:48.873Z,0.00
2023-01-10T06:42:54.395Z,0.00
2023-01-10T06:47:59.408Z,0.00
2023-01-10T06:53:07.107Z,0.67
2023-01-10T06:58:13.846Z,0.00
2023-01-10T07:03:19.764Z,0.00
2023-01-10T07:08:25.237Z,0.00
2023-01-10T07:13:30.679Z,1.00
2023-01-10T07:18:37.655Z,2.00
2023-01-10T07:23:42.781Z,0.00
2023-01-10T07:28:53.932Z,0.00
2023-01-10T07:33:58.692Z,0.00
2023-01-10T07:39:04.537Z,2.00
2023-01-10T07:44:09.404Z,5.00
2023-01-10T07:49:16.453Z,0.00
2023-01-10T07:54:21.529Z,0.00
2023-01-10T07:59:27.024Z,1.00
2023-01-10T08:04:33.030Z,0.00
2023-01-10T08:09:42.401Z,0.00
2023-01-10T08:14:47.381Z,0.00
2023-01-10T08:19:52.511Z,3.50
2023-01-10T08:24:58.626Z,0.00
2023-01-10T08:30:03.543Z,0.00
2023-01-10T08:35:08.757Z,0.00
2023-01-10T08:40:14.057Z,0.00
2023-01-10T08:45:18.995Z,6.00
2023-01-10T08:50:24.469Z,36.50
2023-01-10T09:00:34.229Z,41.50
2023-01-10T09:05:38.976Z,42.25
2023-01-10T09:10:43.889Z,40.67
2023-01-10T09:15:48.996Z,44.00
2023-01-10T09:20:54.381Z,91.33
2023-01-10T09:25:59.322Z,89.67
2023-01-10T09:31:05.741Z,86.67
2023-01-10T09:36:12.404Z,88.50
2023-01-10T09:46:45.428Z,78.67
2023-01-10T09:51:56.008Z,75.00
2023-01-10T09:57:03.449Z,60.33
2023-01-10T10:02:31.747Z,55.50
2023-01-10T10:07:37.164Z,49.50
2023-01-10T10:12:57.781Z,46.67
2023-01-10T10:18:11.922Z,38.75
2023-01-10T10:23:47.434Z,40.25
2023-01-10T10:29:20.366Z,38.50
2023-01-10T10:34:39.066Z,40.75
2023-01-10T10:39:46.814Z,45.33
2023-01-10T10:45:06.874Z,43.00
2023-01-10T10:50:37.824Z,45.75
2023-01-10T10:55:44.056Z,46.50
2023-01-10T11:00:49.429Z,45.50
2023-01-10T11:05:56.449Z,44.00
2023-01-10T11:11:07.993Z,34.67
2023-01-10T11:16:31.337Z,36.67
2023-01-10T11:21:38.565Z,36.50
2023-01-10T11:26:44.942Z,34.50
2023-01-10T11:37:02.372Z,30.33
2023-01-10T11:42:28.653Z,34.33
2023-01-10T11:47:41.714Z,36.75
2023-01-10T11:52:51.843Z,41.33
2023-01-10T11:58:07.953Z,33.33
2023-01-10T12:03:41.917Z,32.00
2023-01-10T12:08:47.737Z,33.75
2023-01-10T12:13:55.059Z,33.33
2023-01-10T12:19:03.372Z,26.25
2023-01-10T12:24:17.990Z,32.75
2023-01-10T12:29:52.929Z,33.33
2023-01-10T12:35:06.728Z,30.75
2023-01-10T12:40:28.116Z,28.75
2023-01-10T12:45:59.611Z,36.67
2023-01-10T12:51:13.997Z,32.00
2023-01-10T12:56:21.707Z,26.25
2023-01-10T13:01:34.600Z,43.00
2023-01-10T13:06:48.501Z,42.00
2023-01-10T13:12:18.671Z,37.67
2023-01-10T13:17:42.150Z,28.67
2023-01-10T13:22:58.531Z,32.33
2023-01-10T13:28:28.180Z,34.50
2023-01-10T13:33:58.222Z,37.33
2023-01-10T13:39:40.788Z,35.00
2023-01-10T13:45:12.948Z,37.00
2023-01-10T13:50:40.029Z,40.00
2023-01-10T13:55:46.509Z,36.33
2023-01-10T14:01:14.775Z,42.33
2023-01-10T14:06:42.151Z,36.00
2023-01-10T14:11:52.302Z,37.25
2023-01-10T14:27:24.330Z,46.50
2023-01-10T14:32:38.219Z,53.25
2023-01-10T14:37:54.717Z,70.50
2023-01-10T14:43:04.277Z,67.67
2023-01-10T14:48:37.687Z,46.25
2023-01-10T14:53:45.071Z,48.50
2023-01-10T14:58:50.181Z,49.25
2023-01-10T15:03:58.364Z,48.50
2023-01-10T15:09:05.236Z,46.50
2023-01-10T15:14:19.001Z,46.50
2023-01-10T15:19:26.209Z,47.00
2023-01-10T15:24:39.385Z,50.00
2023-01-10T15:29:48.372Z,49.67
2023-01-10T15:34:56.417Z,44.25
2023-01-10T15:40:04.922Z,41.33
2023-01-10T15:45:40.466Z,46.50
2023-01-10T15:50:57.971Z,43.67
2023-01-10T15:56:16.130Z,42.50
2023-01-10T16:01:21.567Z,45.75
2023-01-10T16:06:32.088Z,50.00
2023-01-10T16:12:06.416Z,50.00
2023-01-10T16:17:13.744Z,41.50
2023-01-10T16:22:21.501Z,43.00
2023-01-10T16:27:26.470Z,46.50
2023-01-10T16:32:33.570Z,48.75
2023-01-10T16:37:41.742Z,53.25
2023-01-10T16:43:04.779Z,124.00
2023-01-10T16:48:12.081Z,48.50
2023-01-10T16:53:19.081Z,39.25
2023-01-10T16:58:25.428Z,44.25
2023-01-10T17:03:36.164Z,43.50
2023-01-10T17:08:41.310Z,44.75
2023-01-10T17:13:47.658Z,44.75
2023-01-10T17:18:53.906Z,40.00
2023-01-10T17:23:58.752Z,37.25
2023-01-10T17:29:04.307Z,45.25
2023-01-10T17:34:09.519Z,38.33
2023-01-10T17:39:14.179Z,45.00
2023-01-10T17:44:20.256Z,45.00
2023-01-10T17:49:27.123Z,45.25
2023-01-10T17:54:32.210Z,45.25
2023-01-10T17:59:39.352Z,43.25
2023-01-10T18:04:45.969Z,39.50
2023-01-10T18:09:51.367Z,41.00
2023-01-10T18:14:57.048Z,40.00
2023-01-10T18:20:02.821Z,43.50
2023-01-10T18:25:07.895Z,42.75
2023-01-10T18:30:16.100Z,54.00
2023-01-10T18:35:23.007Z,49.25
2023-01-10T18:40:32.319Z,48.00
2023-01-10T18:45:37.131Z,42.25
2023-01-10T18:50:43.196Z,43.00
2023-01-10T18:55:57.923Z,44.67
2023-01-10T19:01:21.579Z,41.33
2023-01-10T19:06:27.178Z,40.75
2023-01-10T19:11:31.829Z,39.67
2023-01-10T19:16:37.323Z,38.50
2023-01-10T19:21:44.348Z,40.33
2023-01-10T19:26:48.963Z,40.25
2023-01-10T19:31:54.472Z,44.50
2023-01-10T19:36:59.147Z,42.00
2023-01-10T19:42:04.589Z,43.50
2023-01-10T19:47:09.958Z,42.75
2023-01-10T19:52:15.536Z,42.33
2023-01-10T19:57:20.091Z,45.00
2023-01-10T20:02:26.418Z,47.33
2023-01-10T20:07:35.824Z,40.33
2023-01-10T20:17:48.003Z,42.50
2023-01-10T20:22:55.344Z,42.00
2023-01-10T20:27:59.998Z,42.50
2023-01-10T20:33:04.561Z,40.33
2023-01-10T20:38:10.166Z,42.25
2023-01-10T20:43:17.074Z,40.00
2023-01-10T20:48:23.552Z,40.00
2023-01-10T20:53:28.272Z,39.75
2023-01-10T20:58:35.270Z,42.00
2023-01-10T21:03:40.876Z,39.67
2023-01-10T21:08:46.510Z,38.75
2023-01-10T21:13:51.203Z,38.33
2023-01-10T21:18:56.076Z,42.25
2023-01-10T21:24:01.714Z,43.75
2023-01-10T21:29:07.903Z,44.67
2023-01-10T21:34:12.510Z,38.75
2023-01-10T21:39:19.247Z,40.67
2023-01-10T21:44:25.636Z,37.75
2023-01-10T21:54:36.620Z,36.00
2023-01-10T21:59:43.802Z,36.75
2023-01-10T22:04:49.835Z,39.50
2023-01-10T22:09:55.251Z,36.50
2023-01-10T22:15:01.256Z,37.67
2023-01-10T22:20:06.612Z,40.33
2023-01-10T22:25:12.626Z,34.00
2023-01-10T22:30:18.286Z,38.33
2023-01-10T22:35:23.788Z,43.25
2023-01-10T22:40:28.487Z,40.25
2023-01-10T22:45:34.619Z,49.00
2023-01-10T22:50:39.293Z,43.67
2023-01-10T22:55:43.896Z,40.75
2023-01-10T23:00:51.636Z,41.33
2023-01-10T23:06:00.215Z,44.00
2023-01-10T23:16:13.410Z,48.75
2023-01-10T23:21:19.831Z,49.50
2023-01-10T23:26:25.948Z,50.00
2023-01-10T23:31:33.042Z,48.50
2023-01-10T23:36:38.361Z,48.50
2023-01-10T23:41:42.876Z,50.00
2023-01-10T23:46:47.509Z,47.25
2023-01-10T23:51:52.096Z,47.00
2023-01-10T23:56:56.921Z,47.75
